Time;durP1;ratioP1;P1;durP2;ratioP2;P2;SDS_P1;SDS_P2;PMS_P1;PMS_P2;Temp;Humidity;BMP_temperature;BMP_pressure;BME280_temperature;BME280_humidity;BME280_pressure;Samples;Min_cycle;Max_cycle;Signal;HPM_P1;HPM_P2
2022/01/30 00:00:56;;;;;;;;;;;7.30;99.90;;;6.90;100.00;101515.97;5009813;28;19952;-74
2022/01/30 00:03:23;;;;;;;;;;;7.40;99.90;;;6.86;100.00;101527.22;5008582;28;19925;-73
2022/01/30 00:05:50;;;;;;;;;;;7.40;99.90;;;6.91;100.00;101527.28;4993218;28;20015;-74
2022/01/30 00:08:17;;;;;;;;;;;7.40;99.90;;;6.93;100.00;101517.72;5009609;28;19929;-73
2022/01/30 00:10:45;;;;;;;;;;;7.20;99.90;;;6.91;100.00;101514.19;5009562;28;19936;-73
2022/01/30 00:13:18;;;;;;;;;;;7.40;99.90;;;6.85;100.00;101512.41;4988898;28;19944;-73
2022/01/30 00:15:50;;;;;;;;;;;7.20;99.90;;;6.88;100.00;101509.84;5021383;28;19925;-74
2022/01/30 00:21:30;;;;;;;;;;;8.40;99.90;;;6.84;100.00;101520.25;5019185;28;19926;-73
2022/01/30 00:24:01;;;;;;;;;;;7.30;99.90;;;6.80;100.00;101503.63;4990375;28;19936;-73
2022/01/30 00:26:32;;;;;;;;;;;7.30;99.90;;;6.84;100.00;101513.25;5005669;28;19930;-73
2022/01/30 00:29:00;;;;;;;;;;;7.20;99.90;;;6.76;100.00;101507.97;5021606;28;19932;-74
2022/01/30 00:31:27;;;;;;;;;;;7.30;99.90;;;6.81;100.00;101514.13;5021696;28;19930;-73
2022/01/30 00:34:17;;;;;;;;;;;7.80;99.90;;;6.82;100.00;101512.38;4987888;28;20032;-74
2022/01/30 00:36:46;;;;;;;;;;;7.20;99.90;;;6.86;100.00;101508.06;5021358;28;19926;-72
2022/01/30 00:39:13;;;;;;;;;;;8.70;99.90;;;6.84;100.00;101507.16;4989494;28;19984;-72
2022/01/30 00:41:39;;;;;;;;;;;7.30;99.90;;;6.87;100.00;101508.09;5021251;28;19929;-72
2022/01/30 00:44:07;;;;;;;;;;;7.20;99.90;;;6.85;100.00;101507.16;5019478;28;19930;-72
2022/01/30 00:46:34;;;;;;;;;;;7.40;99.90;;;6.84;100.00;101513.25;5036209;28;20737;-73
2022/01/30 00:49:01;;;;;;;;;;;9.70;99.90;;;6.84;100.00;101515.03;4991821;28;19925;-72
2022/01/30 00:51:28;;;;;;;;;;;7.20;99.90;;;6.83;100.00;101515.88;5007866;28;20457;-72
2022/01/30 00:53:54;;;;;;;;;;;7.20;99.90;;;6.84;100.00;101507.16;5023799;28;19933;-72
2022/01/30 00:56:21;;;;;;;;;;;7.30;99.90;;;6.88;100.00;101502.00;5025099;28;19936;-73
2022/01/30 00:58:48;;;;;;;;;;;8.20;99.90;;;6.90;100.00;101505.50;5008834;28;19932;-73
2022/01/30 01:01:15;;;;;;;;;;;9.30;99.90;;;6.89;100.00;101523.78;4991991;28;20289;-72
2022/01/30 01:03:42;;;;;;;;;;;7.70;99.90;;;6.88;100.00;101522.03;5023165;28;19980;-72
2022/01/30 01:06:09;;;;;;;;;;;7.40;99.90;;;6.87;100.00;101502.84;5024481;28;19930;-72
2022/01/30 01:24:53;;;;;;;;;;;9.00;99.90;;;6.92;100.00;101515.97;5008724;28;19930;-72
2022/01/30 01:27:20;;;;;;;;;;;8.30;99.90;;;6.97;100.00;101524.75;5040367;28;19945;-72
2022/01/30 01:29:47;;;;;;;;;;;7.30;99.90;;;6.92;100.00;101524.69;5007648;28;19930;-72
2022/01/30 01:32:14;;;;;;;;;;;7.30;99.90;;;6.93;100.00;101536.03;5023242;28;19999;-72
2022/01/30 01:34:42;;;;;;;;;;;7.30;99.90;;;6.91;100.00;101529.91;5006595;28;19929;-71
2022/01/30 01:37:12;;;;;;;;;;;7.40;99.90;;;6.93;100.00;101541.25;5023811;28;19925;-72
2022/01/30 01:39:44;;;;;;;;;;;7.30;99.90;;;6.97;100.00;101537.84;5038356;28;19979;-72
2022/01/30 01:42:11;;;;;;;;;;;8.10;99.90;;;7.01;100.00;101538.72;5008970;28;19926;-72
2022/01/30 01:44:43;;;;;;;;;;;7.40;99.90;;;7.00;100.00;101536.97;5021823;28;19976;-72
2022/01/30 01:47:11;;;;;;;;;;;7.40;99.90;;;7.01;100.00;101541.34;5008288;28;20418;-73
2022/01/30 01:49:39;;;;;;;;;;;7.30;99.90;;;6.99;100.00;101543.94;5006263;28;19936;-72
2022/01/30 01:52:20;;;;;;;;;;;7.40;99.90;;;6.94;100.00;101529.94;5021522;28;19972;-72
2022/01/30 01:54:52;;;;;;;;;;;7.40;99.90;;;6.87;100.00;101534.25;5006615;28;19930;-72
2022/01/30 01:57:20;;;;;;;;;;;7.40;99.90;;;6.91;100.00;101522.94;5023640;28;19929;-72
2022/01/30 01:59:56;;;;;;;;;;;7.70;99.90;;;6.93;100.00;101518.59;5008256;28;20310;-72
2022/01/30 02:02:40;;;;;;;;;;;8.70;99.90;;;6.88;100.00;101509.84;5008214;28;20512;-72
2022/01/30 02:05:08;;;;;;;;;;;8.20;99.90;;;6.91;100.00;101516.81;4990286;28;20399;-72
2022/01/30 02:10:35;;;;;;;;;;;7.60;99.90;;;6.84;100.00;101508.03;5009539;28;20560;-72
2022/01/30 02:13:40;;;;;;;;;;;7.40;99.90;;;6.79;100.00;101501.88;5006163;28;19944;-72
2022/01/30 02:27:02;;;;;;;;;;;8.70;99.90;;;6.69;100.00;101514.00;5009003;28;20036;-75
2022/01/30 02:29:29;;;;;;;;;;;7.00;99.90;;;6.73;100.00;101509.69;5007254;28;19929;-74
2022/01/30 02:31:59;;;;;;;;;;;9.30;99.90;;;6.69;100.00;101513.09;4990858;28;20404;-73
2022/01/30 02:34:30;;;;;;;;;;;7.00;99.90;;;6.70;100.00;101512.25;4991141;28;19952;-72
2022/01/30 02:36:58;;;;;;;;;;;8.30;99.90;;;6.72;100.00;101510.56;5006740;28;20391;-73
2022/01/30 02:39:25;;;;;;;;;;;7.10;99.90;;;6.64;100.00;101515.69;5006185;28;19933;-73
2022/01/30 02:41:53;;;;;;;;;;;7.10;99.90;;;6.68;100.00;101509.63;5023063;28;19929;-72
2022/01/30 02:46:52;;;;;;;;;;;7.00;99.90;;;6.61;100.00;101521.75;5006278;28;19933;-73
2022/01/30 02:51:55;;;;;;;;;;;8.20;99.90;;;6.58;100.00;101537.44;5006437;28;20394;-72
2022/01/30 02:54:23;;;;;;;;;;;8.70;99.90;;;6.59;100.00;101538.28;4990620;28;19960;-74
2022/01/30 02:56:50;;;;;;;;;;;7.00;99.90;;;6.67;100.00;101529.66;5013406;28;19929;-73
2022/01/30 02:59:17;;;;;;;;;;;7.70;99.90;;;6.71;100.00;101532.31;5013415;28;19969;-73
2022/01/30 03:01:44;;;;;;;;;;;7.10;99.90;;;6.75;100.00;101527.13;4997141;28;20028;-73
2022/01/30 03:04:11;;;;;;;;;;;7.00;99.90;;;6.76;100.00;101535.88;5013152;28;19967;-74
2022/01/30 03:06:40;;;;;;;;;;;7.00;99.90;;;6.83;100.00;101549.91;5013313;28;19933;-74
2022/01/30 03:09:14;;;;;;;;;;;7.00;99.90;;;6.85;100.00;101530.72;5031036;28;19964;-72
2022/01/30 03:11:41;;;;;;;;;;;7.20;99.90;;;6.85;100.00;101537.69;4997160;28;20024;-74
2022/01/30 03:14:08;;;;;;;;;;;8.10;99.90;;;6.80;100.00;101541.16;5029939;28;20329;-73
2022/01/30 03:16:35;;;;;;;;;;;9.10;99.90;;;6.81;100.00;101544.63;5014756;28;20446;-73
2022/01/30 03:19:02;;;;;;;;;;;7.30;99.90;;;6.79;100.00;101551.59;5014648;28;19960;-73
2022/01/30 03:21:29;;;;;;;;;;;7.10;99.90;;;6.81;100.00;101553.38;5045763;28;20671;-73
2022/01/30 03:23:56;;;;;;;;;;;8.10;99.90;;;6.72;100.00;101557.63;5011255;28;19941;-73
2022/01/30 03:26:23;;;;;;;;;;;7.20;99.90;;;6.65;100.00;101560.16;5011561;28;19968;-74
2022/01/30 03:29:05;;;;;;;;;;;8.70;99.90;;;6.70;100.00;101562.84;4997655;28;19972;-74
2022/01/30 03:31:40;;;;;;;;;;;7.10;99.90;;;6.67;100.00;101560.19;5012866;28;20019;-73
2022/01/30 03:34:10;;;;;;;;;;;7.10;99.90;;;6.70;100.00;101570.69;5011349;28;19929;-73
2022/01/30 03:36:46;;;;;;;;;;;7.20;99.90;;;6.64;100.00;101574.09;5012687;28;19976;-73
2022/01/30 03:39:15;;;;;;;;;;;8.70;99.90;;;6.64;100.00;101565.41;4996466;28;19929;-73
2022/01/30 03:41:42;;;;;;;;;;;7.10;99.90;;;6.64;100.00;101565.41;4996395;28;19936;-73
2022/01/30 03:44:13;;;;;;;;;;;7.50;99.90;;;6.62;100.00;101565.34;4980192;28;20334;-73
2022/01/30 03:46:40;;;;;;;;;;;9.10;99.90;;;6.58;100.00;101568.81;5012386;28;19984;-73
2022/01/30 03:49:22;;;;;;;;;;;7.50;99.90;;;6.57;100.00;101566.16;5014871;28;19929;-73
2022/01/30 03:51:49;;;;;;;;;;;6.90;99.90;;;6.55;100.00;101575.72;5012685;28;19937;-73
2022/01/30 03:54:33;;;;;;;;;;;7.00;99.90;;;6.56;100.00;101577.47;5013246;28;19956;-73
2022/01/30 03:57:02;;;;;;;;;;;6.80;99.90;;;6.56;100.00;101570.53;5012424;28;19936;-74
2022/01/30 03:59:29;;;;;;;;;;;7.00;99.90;;;6.58;100.00;101584.50;5012521;28;19961;-73
2022/01/30 04:01:57;;;;;;;;;;;6.80;99.90;;;6.51;100.00;101588.78;5012345;28;19996;-73
2022/01/30 04:04:26;;;;;;;;;;;7.00;99.90;;;6.52;100.00;101595.75;4994914;28;19930;-73
2022/01/30 04:06:55;;;;;;;;;;;6.60;99.90;;;6.44;100.00;101599.13;5009987;28;20287;-74
2022/01/30 04:09:54;;;;;;;;;;;3.70;99.90;;;6.41;100.00;101604.31;4975876;28;19937;-73
2022/01/30 04:12:54;;;;;;;;;;;6.90;99.90;;;6.39;100.00;101602.53;5005651;28;19933;-73
2022/01/30 04:15:39;;;;;;;;;;;6.90;99.90;;;6.37;100.00;101604.25;5009267;28;20579;-73
2022/01/30 04:18:33;;;;;;;;;;;6.90;99.90;;;6.40;100.00;101606.06;5008380;28;19929;-73
2022/01/30 04:21:18;;;;;;;;;;;6.80;99.90;;;6.44;100.00;101609.59;5009478;28;20014;-73
2022/01/30 04:24:08;;;;;;;;;;;6.70;99.90;;;6.44;100.00;101617.44;5010747;28;19934;-73
2022/01/30 04:26:50;;;;;;;;;;;6.70;99.90;;;6.50;100.00;101618.41;5010299;28;20395;-73
2022/01/30 04:29:43;;;;;;;;;;;6.80;99.90;;;6.50;100.00;101612.28;5025290;28;20342;-73
2022/01/30 04:32:29;;;;;;;;;;;6.80;99.90;;;6.53;100.00;101610.59;5009567;28;19938;-74
2022/01/30 04:35:38;;;;;;;;;;;6.90;99.90;;;6.56;100.00;101619.31;4956811;28;19926;-73
2022/01/30 04:38:29;;;;;;;;;;;7.00;99.90;;;6.61;100.00;101615.03;4968209;28;20416;-73
2022/01/30 04:57:17;;;;;;;;;;;7.10;99.90;;;6.67;100.00;101613.34;4995132;28;19929;-72
2022/01/30 05:04:01;;;;;;;;;;;7.20;99.90;;;6.74;100.00;101616.94;5007882;28;19925;-73
2022/01/30 05:06:30;;;;;;;;;;;7.10;99.90;;;6.74;100.00;101608.22;4996099;28;20448;-73
2022/01/30 05:09:17;;;;;;;;;;;7.10;99.90;;;6.72;100.00;101613.41;5009185;28;19933;-73
2022/01/30 05:12:15;;;;;;;;;;;7.20;99.90;;;6.76;100.00;101619.56;5004044;28;20449;-73
2022/01/30 05:15:10;;;;;;;;;;;9.00;99.90;;;6.78;100.00;101623.94;4995006;28;20048;-74
2022/01/30 05:17:49;;;;;;;;;;;7.10;99.90;;;6.70;100.00;101624.72;5025647;28;19929;-73
2022/01/30 05:20:37;;;;;;;;;;;7.00;99.90;;;6.74;100.00;101634.38;4988101;28;20314;-73
2022/01/30 05:23:28;;;;;;;;;;;7.00;99.90;;;6.77;100.00;101644.88;5001314;28;19929;-73
2022/01/30 05:26:20;;;;;;;;;;;7.10;99.90;;;6.70;100.00;101649.16;4999090;28;19964;-73
2022/01/30 05:29:08;;;;;;;;;;;6.90;99.90;;;6.71;100.00;101643.06;5008372;28;19936;-73
2022/01/30 05:31:54;;;;;;;;;;;7.10;99.90;;;6.71;100.00;101655.25;5009184;28;19984;-73
2022/01/30 05:34:38;;;;;;;;;;;7.00;99.90;;;6.67;100.00;101649.97;5007911;28;19936;-73
2022/01/30 05:37:43;;;;;;;;;;;7.20;99.90;;;6.67;100.00;101654.34;4999035;28;19929;-72
2022/01/30 05:40:37;;;;;;;;;;;7.50;99.90;;;6.59;100.00;101658.59;4985201;28;19929;-73
2022/01/30 05:43:14;;;;;;;;;;;7.00;99.90;;;6.57;100.00;101666.44;5007237;28;19933;-73
2022/01/30 05:45:45;;;;;;;;;;;7.00;99.90;;;6.49;100.00;101665.44;5008895;28;19936;-72
2022/01/30 05:48:31;;;;;;;;;;;7.00;99.90;;;6.44;100.00;101662.75;5007785;28;19936;-73
2022/01/30 05:51:11;;;;;;;;;;;6.80;99.90;;;6.40;100.00;101660.94;5007611;28;19937;-73
2022/01/30 05:53:58;;;;;;;;;;;8.80;99.90;;;6.38;100.00;101662.66;5006960;28;19925;-73
2022/01/30 05:56:30;;;;;;;;;;;7.80;99.90;;;6.28;100.00;101669.50;4992073;28;20394;-72
2022/01/30 05:59:03;;;;;;;;;;;6.80;99.90;;;6.36;100.00;101682.69;4992055;28;20716;-73
2022/01/30 06:01:31;;;;;;;;;;;9.10;99.90;;;6.33;100.00;101685.25;5023804;28;19929;-73
2022/01/30 06:04:21;;;;;;;;;;;6.60;99.90;;;6.32;100.00;101691.31;5004143;28;19926;-73
2022/01/30 06:06:53;;;;;;;;;;;6.80;99.90;;;6.33;100.00;101701.81;5007216;28;19936;-73
2022/01/30 06:09:20;;;;;;;;;;;10.00;99.90;;;6.31;100.00;101695.69;5023643;28;19929;-73
2022/01/30 06:11:54;;;;;;;;;;;6.70;99.90;;;6.33;100.00;101704.44;4991765;28;19929;-73
2022/01/30 06:14:23;;;;;;;;;;;7.60;99.90;;;6.29;100.00;101696.50;4990602;28;20028;-73
2022/01/30 06:17:01;;;;;;;;;;;6.70;99.90;;;6.33;100.00;101708.78;4977786;28;19936;-72
2022/01/30 06:19:54;;;;;;;;;;;6.70;99.90;;;6.31;100.00;101706.13;5008243;28;20040;-73
2022/01/30 06:22:40;;;;;;;;;;;7.30;99.90;;;6.41;100.00;101719.38;4993495;28;20520;-73
2022/01/30 06:25:31;;;;;;;;;;;8.90;99.90;;;6.38;100.00;101720.19;5007066;28;19936;-73
2022/01/30 06:28:24;;;;;;;;;;;6.80;99.90;;;6.37;100.00;101723.66;5005096;28;19933;-73
2022/01/30 06:31:09;;;;;;;;;;;6.70;99.90;;;6.38;100.00;101718.44;5006779;28;20413;-73
2022/01/30 06:33:55;;;;;;;;;;;8.20;99.90;;;6.33;100.00;101727.94;5006967;28;19932;-73
2022/01/30 06:36:55;;;;;;;;;;;6.60;99.90;;;6.30;100.00;101738.38;5007009;28;20377;-73
2022/01/30 06:39:45;;;;;;;;;;;7.20;99.90;;;6.28;100.00;101744.41;4993843;28;19930;-73
2022/01/30 06:42:19;;;;;;;;;;;8.50;99.90;;;6.22;100.00;101738.25;5006023;28;19934;-73
2022/01/30 06:45:06;;;;;;;;;;;8.80;99.90;;;6.12;100.00;101738.94;4987750;28;19941;-73
2022/01/30 06:47:51;;;;;;;;;;;6.40;99.90;;;6.08;100.00;101740.63;5015051;28;19937;-73
2022/01/30 06:50:37;;;;;;;;;;;6.40;99.90;;;6.06;100.00;101739.72;4988619;28;20415;-73
2022/01/30 06:53:24;;;;;;;;;;;6.30;99.90;;;6.12;100.00;101752.00;4988644;28;19936;-73
2022/01/30 06:56:23;;;;;;;;;;;6.50;99.90;;;6.09;100.00;101751.97;4999639;28;19973;-73
2022/01/30 06:59:19;;;;;;;;;;;6.60;99.90;;;6.04;100.00;101754.50;5011872;28;20450;-73
2022/01/30 07:02:06;;;;;;;;;;;7.20;99.90;;;6.01;100.00;101751.84;5007434;28;19940;-73
2022/01/30 07:05:03;;;;;;;;;;;6.30;99.90;;;5.94;100.00;101763.88;4976079;28;20009;-73
2022/01/30 07:07:43;;;;;;;;;;;6.40;99.90;;;5.92;100.00;101764.69;5005959;28;19953;-73
2022/01/30 07:10:10;;;;;;;;;;;6.20;99.90;;;5.86;100.00;101767.22;5006437;28;19925;-73
2022/01/30 07:12:37;;;;;;;;;;;7.80;99.90;;;5.83;100.00;101778.47;5007228;28;19929;-73
2022/01/30 07:15:04;;;;;;;;;;;6.30;99.90;;;5.80;100.00;101786.25;5006284;28;19941;-73
2022/01/30 07:17:31;;;;;;;;;;;9.20;99.90;;;5.82;100.00;101788.06;5005890;28;20158;-73
2022/01/30 07:19:58;;;;;;;;;;;6.30;99.90;;;5.84;100.00;101795.91;5006196;28;19929;-74
2022/01/30 07:22:27;;;;;;;;;;;6.30;99.90;;;5.84;100.00;101805.47;5007329;28;19930;-74
2022/01/30 07:24:55;;;;;;;;;;;6.20;99.90;;;5.84;100.00;101798.50;5007782;28;19940;-74
2022/01/30 07:27:22;;;;;;;;;;;6.10;99.90;;;5.81;100.00;101804.56;5006277;28;19930;-76
2022/01/30 07:29:49;;;;;;;;;;;6.20;99.90;;;5.79;100.00;101797.56;5007785;28;20608;-74
2022/01/30 07:32:16;;;;;;;;;;;8.60;99.90;;;5.78;100.00;101807.13;5006087;28;19940;-74
2022/01/30 07:34:44;;;;;;;;;;;6.30;99.90;;;5.80;100.00;101804.53;5006192;28;19925;-74
2022/01/30 07:37:11;;;;;;;;;;;7.80;99.90;;;5.82;100.00;101808.06;5006420;28;19971;-74
2022/01/30 07:39:38;;;;;;;;;;;6.20;99.90;;;5.78;100.00;101816.69;5006573;28;19926;-73
2022/01/30 07:42:05;;;;;;;;;;;6.80;99.90;;;5.79;100.00;101815.84;5007094;28;19925;-72
2022/01/30 07:44:33;;;;;;;;;;;6.10;99.90;;;5.78;100.00;101820.19;4993748;28;19932;-74
2022/01/30 07:47:00;;;;;;;;;;;7.00;99.90;;;5.82;100.00;101824.63;4993547;28;20413;-75
2022/01/30 07:49:27;;;;;;;;;;;6.20;99.90;;;5.83;100.00;101835.94;5009683;28;19937;-74
2022/01/30 07:51:54;;;;;;;;;;;6.30;99.90;;;5.94;100.00;101841.38;5005195;28;20701;-78
2022/01/30 07:54:21;;;;;;;;;;;6.20;99.50;;;6.02;100.00;101833.72;5009197;28;19926;-73
2022/01/30 07:56:48;;;;;;;;;;;6.30;98.80;;;5.99;100.00;101842.34;5009965;28;19930;-72
2022/01/30 07:59:15;;;;;;;;;;;6.40;98.70;;;6.08;100.00;101839.91;4993321;28;19936;-73
2022/01/30 08:01:42;;;;;;;;;;;7.00;98.40;;;6.09;100.00;101840.81;5009365;28;19936;-72
2022/01/30 08:04:10;;;;;;;;;;;8.30;98.10;;;6.18;100.00;101845.31;5009235;28;19929;-74
2022/01/30 08:06:37;;;;;;;;;;;6.50;97.20;;;6.16;100.00;101849.66;5009304;28;20652;-72
2022/01/30 08:09:04;;;;;;;;;;;6.50;97.50;;;6.22;100.00;101849.75;5008885;28;20047;-73
2022/01/30 08:11:31;;;;;;;;;;;8.70;98.00;;;6.27;100.00;101855.97;4992834;28;19929;-71
2022/01/30 08:13:58;;;;;;;;;;;7.40;97.40;;;6.27;100.00;101850.72;5024652;28;19936;-72
2022/01/30 08:16:27;;;;;;;;;;;6.70;96.60;;;6.26;100.00;101851.59;5008926;28;19958;-72
2022/01/30 08:18:54;;;;;;;;;;;7.50;97.30;;;6.29;100.00;101855.97;5009099;28;19980;-73
2022/01/30 08:21:22;;;;;;;;;;;6.80;97.00;;;6.30;100.00;101844.66;5008919;28;20532;-72
2022/01/30 08:23:50;;;;;;;;;;;6.70;96.40;;;6.29;100.00;101845.50;5008567;28;20069;-71
2022/01/30 08:26:17;;;;;;;;;;;6.70;96.50;;;6.21;100.00;101846.28;5025156;28;20480;-72
2022/01/30 08:28:44;;;;;;;;;;;6.60;96.40;;;6.32;100.00;101848.16;5009942;28;19933;-73
2022/01/30 08:31:11;;;;;;;;;;;7.90;96.90;;;6.29;100.00;101850.72;5008570;28;20355;-72
2022/01/30 08:33:38;;;;;;;;;;;7.70;96.70;;;6.28;100.00;101856.81;5008500;28;20349;-72
2022/01/30 08:36:05;;;;;;;;;;;7.90;96.70;;;6.31;100.00;101846.41;5008446;28;20349;-73
2022/01/30 08:38:32;;;;;;;;;;;6.70;96.50;;;6.24;100.00;101848.03;5010152;28;20389;-72
2022/01/30 08:40:59;;;;;;;;;;;7.60;96.90;;;6.36;100.00;101855.22;4992313;28;19936;-73
2022/01/30 08:43:26;;;;;;;;;;;6.70;96.80;;;6.35;99.78;101846.50;5008300;28;19935;-72
2022/01/30 08:45:53;;;;;;;;;;;8.20;96.60;;;6.34;97.53;101849.09;5010045;28;19926;-72
2022/01/30 08:48:21;;;;;;;;;;;7.30;95.90;;;6.36;100.00;101837.78;4992248;28;19926;-72
2022/01/30 08:50:48;;;;;;;;;;;7.60;96.40;;;6.46;100.00;101827.50;5041769;28;19926;-72
2022/01/30 08:53:16;;;;;;;;;;;9.10;96.90;;;6.49;100.00;101840.63;5007407;28;19936;-75
2022/01/30 08:55:43;;;;;;;;;;;7.00;96.50;;;6.38;100.00;101836.09;5008486;28;19948;-74
2022/01/30 08:58:10;;;;;;;;;;;6.90;96.50;;;6.47;100.00;101837.97;4992215;28;19948;-74
2022/01/30 09:00:39;;;;;;;;;;;8.50;97.20;;;6.51;100.00;101837.19;5008649;28;20016;-74
2022/01/30 09:03:06;;;;;;;;;;;6.90;96.40;;;6.52;97.81;101841.56;5007891;28;19936;-74
2022/01/30 09:05:34;;;;;;;;;;;7.00;95.70;;;6.64;89.57;101829.56;5002140;28;20358;-74
2022/01/30 09:08:05;;;;;;;;;;;8.80;95.50;;;6.74;90.74;101838.41;5033667;28;19964;-73
2022/01/30 09:10:37;;;;;;;;;;;8.20;95.60;;;6.89;86.78;101840.38;5009262;28;20336;-74
2022/01/30 09:13:05;;;;;;;;;;;7.20;94.80;;;6.96;88.09;101834.38;4993517;28;19939;-74
2022/01/30 09:15:41;;;;;;;;;;;7.20;95.00;;;6.92;90.51;101829.94;5009858;28;19969;-74
2022/01/30 09:18:10;;;;;;;;;;;7.30;95.10;;;7.06;92.20;101838.00;5009341;28;19933;-73
2022/01/30 09:20:39;;;;;;;;;;;7.30;95.50;;;7.09;87.81;101833.69;5008507;28;19929;-74
2022/01/30 09:23:07;;;;;;;;;;;8.90;95.10;;;7.12;84.08;101839.84;5008676;28;19932;-75
2022/01/30 09:25:34;;;;;;;;;;;7.50;94.30;;;7.12;83.68;101832.84;5008536;28;19933;-73
2022/01/30 09:28:02;;;;;;;;;;;7.70;94.30;;;7.23;82.15;101838.22;5024552;28;19933;-75
2022/01/30 09:30:29;;;;;;;;;;;7.50;94.10;;;7.37;84.40;101834.06;5009083;28;19930;-73
2022/01/30 09:32:56;;;;;;;;;;;7.50;94.40;;;7.41;81.25;101837.59;5008860;28;19933;-72
2022/01/30 09:35:23;;;;;;;;;;;7.80;93.80;;;7.36;81.37;101824.44;4990275;28;20295;-73
2022/01/30 09:37:50;;;;;;;;;;;9.00;94.20;;;7.74;90.98;101830.13;5006570;28;19936;-75
2022/01/30 09:40:18;;;;;;;;;;;7.80;95.40;;;7.76;82.14;101820.56;5008116;28;19930;-76
2022/01/30 09:42:46;;;;;;;;;;;8.60;94.00;;;7.97;82.39;101824.25;5007487;28;20019;-76
2022/01/30 09:45:16;;;;;;;;;;;7.90;94.20;;;7.82;75.08;101825.84;5008554;28;20469;-75
2022/01/30 09:47:44;;;;;;;;;;;8.30;92.70;;;7.84;74.60;101824.13;5007631;28;20024;-76
2022/01/30 09:50:11;;;;;;;;;;;8.10;92.80;;;7.79;73.53;101820.59;5006816;28;19929;-76
2022/01/30 09:52:38;;;;;;;;;;;8.20;92.60;;;7.75;72.34;101822.28;5023633;28;20304;-75
2022/01/30 09:55:08;;;;;;;;;;;9.30;92.50;;;7.86;69.04;101825.00;5040161;28;19929;-76
2022/01/30 09:57:36;;;;;;;;;;;8.40;91.40;;;7.80;71.88;101817.09;5039762;28;20480;-75
2022/01/30 10:00:06;;;;;;;;;;;8.10;92.30;;;7.82;69.59;101828.47;5039808;28;20608;-75
2022/01/30 10:02:34;;;;;;;;;;;8.10;91.50;;;7.82;64.81;101828.47;5039723;28;20054;-76
2022/01/30 10:05:01;;;;;;;;;;;8.10;90.40;;;7.72;65.12;101832.72;5023062;28;19929;-76
2022/01/30 10:07:44;;;;;;;;;;;8.20;90.50;;;7.87;66.80;101839.00;5023103;28;20028;-75
2022/01/30 10:10:16;;;;;;;;;;;8.10;91.20;;;7.97;66.65;101840.88;5039468;28;19929;-75
2022/01/30 10:13:06;;;;;;;;;;;8.20;91.60;;;7.94;66.78;101836.47;5038793;28;20020;-75
2022/01/30 10:15:49;;;;;;;;;;;8.20;91.10;;;7.79;66.12;101831.06;5007227;28;20421;-75
2022/01/30 10:18:18;;;;;;;;;;;8.10;90.80;;;7.79;68.17;101831.06;5009581;28;19929;-75
2022/01/30 10:20:45;;;;;;;;;;;8.20;91.30;;;7.82;68.72;101836.34;5011345;28;19931;-75
2022/01/30 10:23:12;;;;;;;;;;;8.10;91.70;;;7.88;70.00;101828.56;5024187;28;19914;-76
2022/01/30 10:25:52;;;;;;;;;;;8.00;92.20;;;7.93;72.20;101833.81;4991507;28;19936;-75
2022/01/30 10:28:20;;;;;;;;;;;8.20;92.60;;;7.89;70.26;101834.66;5009155;28;20008;-77
2022/01/30 10:30:53;;;;;;;;;;;8.20;92.10;;;7.95;70.77;101832.09;5009217;28;19929;-75
2022/01/30 10:33:45;;;;;;;;;;;8.20;92.20;;;7.97;69.03;101839.97;4992976;28;19929;-76
2022/01/30 10:36:17;;;;;;;;;;;9.50;92.70;;;8.00;64.52;101843.53;5007413;28;20081;-77
2022/01/30 10:38:52;;;;;;;;;;;9.30;90.50;;;7.84;68.04;101841.59;5008809;28;19933;-76
2022/01/30 10:41:30;;;;;;;;;;;9.00;91.90;;;7.91;68.69;101848.66;5008682;28;20575;-75
2022/01/30 10:44:07;;;;;;;;;;;8.20;91.80;;;7.99;69.45;101843.50;4987370;28;20028;-75
2022/01/30 10:46:44;;;;;;;;;;;8.30;92.00;;;8.05;70.52;101836.56;5013456;28;20024;-77
2022/01/30 10:49:16;;;;;;;;;;;8.30;92.20;;;8.04;70.31;101831.31;4847382;28;20121;-76
2022/01/30 10:51:58;;;;;;;;;;;8.60;92.40;;;8.14;76.03;101835.78;5034596;28;19948;-75
2022/01/30 10:54:33;;;;;;;;;;;8.30;93.30;;;8.26;81.16;101835.00;4984377;28;19926;-77
2022/01/30 10:57:02;;;;;;;;;;;8.20;94.00;;;8.19;86.04;101822.72;5000810;28;19929;-77
2022/01/30 10:59:29;;;;;;;;;;;8.50;94.50;;;8.15;86.39;101823.56;5000081;28;20429;-76
2022/01/30 11:02:09;;;;;;;;;;;9.50;94.60;;;8.15;84.05;101828.81;5005345;28;19929;-77
2022/01/30 11:04:36;;;;;;;;;;;8.50;94.10;;;8.23;86.04;101820.16;5003525;28;19955;-77
2022/01/30 11:07:05;;;;;;;;;;;8.30;94.40;;;8.26;83.39;101819.28;4987274;28;20395;-77
2022/01/30 11:09:46;;;;;;;;;;;8.40;94.10;;;8.24;79.25;101828.88;5003794;28;19940;-77
2022/01/30 11:12:18;;;;;;;;;;;9.70;93.80;;;8.43;73.39;101826.41;5004134;28;19930;-77
2022/01/30 11:17:16;;;;;;;;;;;8.80;90.70;;;8.27;64.75;101831.53;5025035;28;19929;-78
2022/01/30 11:19:46;;;;;;;;;;;8.60;90.30;;;8.27;65.24;101836.75;4992678;28;19937;-76
2022/01/30 11:22:15;;;;;;;;;;;10.60;91.20;;;8.23;66.43;101837.63;5011630;28;20558;-75
2022/01/30 11:25:01;;;;;;;;;;;8.60;91.30;;;8.26;63.77;101847.25;4992504;28;19930;-77
2022/01/30 11:27:28;;;;;;;;;;;8.50;90.30;;;8.37;63.06;101822.03;4995631;28;19949;-77
2022/01/30 11:29:55;;;;;;;;;;;10.40;90.90;;;8.51;62.92;101824.78;4994506;28;19936;-77
2022/01/30 11:32:23;;;;;;;;;;;9.80;90.70;;;8.57;62.45;101837.06;5007866;28;19936;-74
2022/01/30 11:34:53;;;;;;;;;;;8.70;90.30;;;8.48;60.87;101835.22;5012534;28;19930;-78
2022/01/30 11:37:27;;;;;;;;;;;10.60;89.10;;;8.61;60.32;101830.97;4997682;28;19933;-76
2022/01/30 11:39:54;;;;;;;;;;;8.90;88.00;;;8.57;59.86;101818.69;5008307;28;19933;-76
2022/01/30 11:42:27;;;;;;;;;;;8.90;88.00;;;8.68;60.78;101816.16;5007234;28;20414;-76
2022/01/30 11:45:00;;;;;;;;;;;9.60;89.60;;;8.89;60.08;101818.03;4990121;28;19929;-80
2022/01/30 11:47:52;;;;;;;;;;;9.10;88.80;;;8.94;60.37;101811.06;5010651;28;19929;-79
2022/01/30 11:50:21;;;;;;;;;;;9.00;88.90;;;8.83;58.38;101804.91;4991196;28;19972;-77
2022/01/30 11:52:59;;;;;;;;;;;10.20;86.30;;;9.08;61.04;101806.78;5006806;28;19930;-78
2022/01/30 11:55:51;;;;;;;;;;;9.20;90.40;;;9.11;62.42;101805.03;5020891;28;19930;-76
2022/01/30 11:58:30;;;;;;;;;;;9.30;89.00;;;9.27;59.78;101798.13;4991194;28;19929;-79
2022/01/30 12:01:14;;;;;;;;;;;9.40;87.80;;;9.40;57.04;101796.41;4990908;28;20044;-76
2022/01/30 12:04:09;;;;;;;;;;;10.20;84.70;;;9.27;57.57;101804.22;5003509;28;20759;-74
2022/01/30 12:06:38;;;;;;;;;;;9.60;83.70;;;9.03;58.41;101792.75;4991102;28;20460;-74
2022/01/30 12:09:27;;;;;;;;;;;9.30;85.30;;;9.17;58.13;101794.56;5021997;28;19936;-76
2022/01/30 12:12:03;;;;;;;;;;;9.50;87.20;;;9.39;56.86;101790.28;4998126;28;19934;-77
2022/01/30 12:14:43;;;;;;;;;;;9.60;85.30;;;9.61;57.46;101787.72;5009736;28;19995;-75
2022/01/30 12:17:10;;;;;;;;;;;9.70;87.30;;;9.38;59.20;101790.28;5010780;28;19937;-80
2022/01/30 12:19:40;;;;;;;;;;;10.60;87.80;;;9.49;58.03;101791.19;5009678;28;19933;-77
2022/01/30 12:22:16;;;;;;;;;;;12.00;87.20;;;9.50;58.42;101791.19;5025631;28;20326;-76
2022/01/30 12:24:46;;;;;;;;;;;9.90;86.40;;;9.49;58.11;101783.31;4993335;28;20357;-76
2022/01/30 12:27:14;;;;;;;;;;;9.80;86.30;;;9.58;56.92;101774.59;5008107;28;20379;-76
2022/01/30 12:29:41;;;;;;;;;;;9.90;84.70;;;9.55;55.57;101770.19;5009086;28;19926;-76
2022/01/30 12:32:20;;;;;;;;;;;10.00;82.60;;;9.49;55.97;101775.44;4992476;28;19936;-76
2022/01/30 12:34:57;;;;;;;;;;;9.90;83.30;;;9.46;55.78;101788.56;5010020;28;20045;-76
2022/01/30 12:37:28;;;;;;;;;;;9.80;81.90;;;9.60;55.94;101765.84;5009942;28;20573;-75
2022/01/30 12:39:57;;;;;;;;;;;9.90;82.80;;;9.70;56.57;101761.47;5025528;28;20302;-76
2022/01/30 12:42:26;;;;;;;;;;;9.80;85.10;;;10.02;55.99;101755.38;5008583;28;19969;-76
2022/01/30 12:44:58;;;;;;;;;;;10.10;85.10;;;10.04;55.18;101747.47;5008884;28;19937;-75
2022/01/30 12:47:56;;;;;;;;;;;11.20;83.60;;;9.42;55.58;101757.88;5009937;28;19924;-75
2022/01/30 12:50:31;;;;;;;;;;;11.60;82.30;;;9.41;55.92;101754.41;5026413;28;19932;-75